Time;durP1;ratioP1;P1;durP2;ratioP2;P2;SDS_P1;SDS_P2;PMS_P1;PMS_P2;Temp;Humidity;BMP_temperature;BMP_pressure;BME280_temperature;BME280_humidity;BME280_pressure;Samples;Min_cycle;Max_cycle;Signal;HPM_P1;HPM_P2
2023/08/02 00:01:47;;;;;;;;;;;;;;;21.68;100.00;99733.46;104843;1260;62007;-62
2023/08/02 00:04:14;;;;;;;;;;;;;;;21.67;100.00;99735.54;104922;1259;61144;-62
2023/08/02 00:06:41;;;;;;;;;;;;;;;21.68;100.00;99728.33;105016;1259;74690;-60
2023/08/02 00:09:09;;;;;;;;;;;;;;;21.68;100.00;99731.17;105702;1261;67196;-67
2023/08/02 00:11:36;;;;;;;;;;;;;;;21.69;100.00;99731.81;105106;1260;71876;-61
2023/08/02 00:14:03;;;;;;;;;;;;;;;21.67;100.00;99730.86;104827;1259;61391;-62
2023/08/02 00:16:30;;;;;;;;;;;;;;;21.63;100.00;99724.45;104951;1260;61170;-61
2023/08/02 00:18:57;;;;;;;;;;;;;;;21.60;100.00;99721.86;104856;1259;74298;-68
2023/08/02 00:21:24;;;;;;;;;;;;;;;21.56;100.00;99717.14;104766;1263;65947;-61
2023/08/02 00:23:51;;;;;;;;;;;;;;;21.52;100.00;99728.14;104594;1264;72811;-61
2023/08/02 00:26:18;;;;;;;;;;;;;;;21.50;100.00;99754.08;104932;1260;61158;-62
2023/08/02 00:28:45;;;;;;;;;;;;;;;21.44;100.00;99771.38;105151;1259;59695;-61
2023/08/02 00:31:12;;;;;;;;;;;;;;;21.33;100.00;99793.52;105616;1263;74688;-64
2023/08/02 00:33:40;;;;;;;;;;;;;;;21.20;100.00;99808.08;104979;1259;67104;-61
2023/08/02 00:36:07;;;;;;;;;;;;;;;21.07;100.00;99802.50;104856;1260;71996;-63
2023/08/02 00:38:35;;;;;;;;;;;;;;;21.00;100.00;99815.21;105071;1259;61382;-62
2023/08/02 00:41:03;;;;;;;;;;;;;;;20.95;100.00;99810.38;105127;1264;61536;-62
2023/08/02 00:43:37;;;;;;;;;;;;;;;20.90;100.00;99810.06;104938;1260;74604;-61
2023/08/02 00:46:04;;;;;;;;;;;;;;;20.87;100.00;99807.50;104957;1259;65763;-62
2023/08/02 00:48:32;;;;;;;;;;;;;;;20.84;100.00;99803.52;104964;1259;72750;-62
2023/08/02 00:50:59;;;;;;;;;;;;;;;20.82;100.00;99797.53;105059;1260;61880;-74
2023/08/02 00:53:26;;;;;;;;;;;;;;;20.79;100.00;99794.71;105237;1262;61141;-60
2023/08/02 00:55:54;;;;;;;;;;;;;;;20.75;100.00;99788.83;104948;1262;74768;-61
2023/08/02 00:58:21;;;;;;;;;;;;;;;20.73;100.00;99783.91;104934;1259;67179;-60
2023/08/02 01:00:48;;;;;;;;;;;;;;;20.73;100.00;99778.85;105211;1259;72572;-64
2023/08/02 01:03:14;;;;;;;;;;;;;;;20.70;100.00;99773.55;104976;1260;62023;-59
2023/08/02 01:05:50;;;;;;;;;;;;;;;20.68;100.00;99763.11;104874;1260;61218;-60
2023/08/02 01:08:19;;;;;;;;;;;;;;;20.67;100.00;99768.63;104978;1259;73335;-61
2023/08/02 01:10:49;;;;;;;;;;;;;;;20.68;100.00;99765.34;104877;1259;67985;-59
2023/08/02 01:13:15;;;;;;;;;;;;;;;20.68;100.00;99754.48;105344;1260;72422;-59
2023/08/02 01:15:42;;;;;;;;;;;;;;;20.68;100.00;99751.83;104832;1259;61771;-59
2023/08/02 01:18:09;;;;;;;;;;;;;;;20.67;100.00;99750.98;104778;1265;61241;-60
2023/08/02 01:20:37;;;;;;;;;;;;;;;20.65;100.00;99747.02;104832;1261;74635;-63
2023/08/02 01:23:04;;;;;;;;;;;;;;;20.64;100.00;99746.14;105082;1259;67103;-62
2023/08/02 01:25:31;;;;;;;;;;;;;;;20.63;100.00;99746.84;105000;1261;71551;-60
2023/08/02 01:28:02;;;;;;;;;;;;;;;20.61;100.00;99753.15;104728;1265;61340;-61
2023/08/02 01:30:30;;;;;;;;;;;;;;;20.60;100.00;99755.73;104698;1260;61298;-58
2023/08/02 01:32:58;;;;;;;;;;;;;;;20.57;100.00;99754.78;105222;1259;73274;-59
2023/08/02 01:35:26;;;;;;;;;;;;;;;20.52;100.00;99754.55;105301;1259;67172;-59
2023/08/02 01:37:53;;;;;;;;;;;;;;;20.48;100.00;99756.41;104761;1261;72737;-59
2023/08/02 01:40:20;;;;;;;;;;;;;;;20.40;100.00;99757.23;105088;1259;62133;-59
2023/08/02 01:42:47;;;;;;;;;;;;;;;20.31;100.00;99759.11;105217;1259;61164;-58
2023/08/02 01:45:14;;;;;;;;;;;;;;;20.17;100.00;99768.69;105407;1262;74710;-66
2023/08/02 01:47:40;;;;;;;;;;;;;;;20.07;100.00;99769.96;104588;1260;67528;-58
2023/08/02 01:50:07;;;;;;;;;;;;;;;19.94;100.00;99769.79;104808;1260;72691;-64
2023/08/02 01:52:34;;;;;;;;;;;;;;;19.84;100.00;99773.48;105004;1262;61992;-59
2023/08/02 01:55:01;;;;;;;;;;;;;;;19.74;100.00;99767.40;105356;1259;61149;-68
2023/08/02 01:57:28;;;;;;;;;;;;;;;19.65;100.00;99770.46;105144;1263;74677;-59
2023/08/02 01:59:55;;;;;;;;;;;;;;;19.59;100.00;99771.14;104930;1259;67213;-60
2023/08/02 02:02:22;;;;;;;;;;;;;;;19.53;100.00;99771.41;104775;1260;72786;-65
2023/08/02 02:04:50;;;;;;;;;;;;;;;19.49;100.00;99772.33;104984;1263;61323;-59
2023/08/02 02:07:17;;;;;;;;;;;;;;;19.45;100.00;99774.10;104855;1260;61362;-59
2023/08/02 02:09:44;;;;;;;;;;;;;;;19.42;100.00;99772.48;104689;1260;74648;-59
2023/08/02 02:12:11;;;;;;;;;;;;;;;19.40;100.00;99779.25;104822;1265;66037;-63
2023/08/02 02:14:38;;;;;;;;;;;;;;;19.40;100.00;99784.75;104916;1264;71611;-58
2023/08/02 02:17:05;;;;;;;;;;;;;;;19.38;100.00;99789.85;105048;1263;63194;-59
2023/08/02 02:19:32;;;;;;;;;;;;;;;19.37;100.00;99797.51;104862;1259;61330;-61
2023/08/02 02:21:59;;;;;;;;;;;;;;;19.34;100.00;99792.04;104807;1259;73359;-70
2023/08/02 02:24:27;;;;;;;;;;;;;;;19.32;100.00;99784.56;105165;1263;66598;-58
2023/08/02 02:26:55;;;;;;;;;;;;;;;19.29;100.00;99782.81;104931;1264;72673;-57
2023/08/02 02:29:22;;;;;;;;;;;;;;;19.27;100.00;99781.95;104723;1265;61895;-60
2023/08/02 02:31:50;;;;;;;;;;;;;;;19.23;100.00;99790.05;104921;1259;61151;-57
2023/08/02 02:34:17;;;;;;;;;;;;;;;19.19;100.00;99791.96;104966;1259;73660;-75
2023/08/02 02:36:45;;;;;;;;;;;;;;;19.17;100.00;99800.26;104914;1262;67220;-62
2023/08/02 02:39:12;;;;;;;;;;;;;;;19.15;100.00;99802.33;104934;1259;72524;-58
2023/08/02 02:41:39;;;;;;;;;;;;;;;19.15;100.00;99803.18;104908;1260;62479;-75
2023/08/02 02:44:06;;;;;;;;;;;;;;;19.17;100.00;99802.52;105420;1259;61267;-75
2023/08/02 02:46:33;;;;;;;;;;;;;;;19.18;100.00;99803.21;105086;1259;75806;-58
2023/08/02 02:49:00;;;;;;;;;;;;;;;19.19;100.00;99806.97;104901;1263;65973;-57
2023/08/02 02:51:27;;;;;;;;;;;;;;;19.22;100.00;99814.81;104737;1259;260951;-58
2023/08/02 02:53:53;;;;;;;;;;;;;;;19.26;100.00;99820.20;105365;1260;61913;-77
2023/08/02 02:56:20;;;;;;;;;;;;;;;19.29;100.00;99830.42;105013;1263;61286;-58
2023/08/02 02:58:48;;;;;;;;;;;;;;;19.31;100.00;99828.00;105050;1260;73485;-58
2023/08/02 03:01:14;;;;;;;;;;;;;;;19.32;100.00;99833.10;104672;1259;67126;-57
2023/08/02 03:03:41;;;;;;;;;;;;;;;19.33;100.00;99833.27;104939;1260;72730;-62
2023/08/02 03:06:08;;;;;;;;;;;;;;;19.34;100.00;99836.48;105070;1259;62493;-64
2023/08/02 03:08:35;;;;;;;;;;;;;;;19.35;100.00;99833.70;105051;1263;60738;-58
2023/08/02 03:11:02;;;;;;;;;;;;;;;19.36;100.00;99832.34;104928;1260;74517;-58
2023/08/02 03:13:29;;;;;;;;;;;;;;;19.37;100.00;99828.23;105078;1259;67329;-60
2023/08/02 03:15:56;;;;;;;;;;;;;;;19.39;100.00;99823.90;105186;1261;72688;-61
2023/08/02 03:18:23;;;;;;;;;;;;;;;19.42;100.00;99822.30;105411;1259;61346;-70
2023/08/02 03:20:50;;;;;;;;;;;;;;;19.44;100.00;99814.33;104754;1262;61195;-58
2023/08/02 03:23:17;;;;;;;;;;;;;;;19.48;100.00;99806.95;104807;1262;74815;-60
2023/08/02 03:25:43;;;;;;;;;;;;;;;19.51;100.00;99799.79;104879;1259;67156;-62
2023/08/02 03:28:10;;;;;;;;;;;;;;;19.55;100.00;99795.96;105328;1261;73096;-72
2023/08/02 03:30:37;;;;;;;;;;;;;;;19.58;100.00;99785.72;104959;1259;61521;-72
2023/08/02 03:33:04;;;;;;;;;;;;;;;19.63;100.00;99787.95;104991;1261;60564;-58
2023/08/02 03:35:31;;;;;;;;;;;;;;;19.66;100.00;99784.27;104993;1262;74798;-57
2023/08/02 03:37:58;;;;;;;;;;;;;;;19.71;100.00;99785.04;104939;1259;67202;-58
2023/08/02 03:40:25;;;;;;;;;;;;;;;19.74;100.00;99780.09;104605;1260;72767;-72
2023/08/02 03:42:52;;;;;;;;;;;;;;;19.77;100.00;99772.98;104546;1264;61254;-61
2023/08/02 03:45:18;;;;;;;;;;;;;;;19.79;100.00;99772.45;104856;1264;61477;-59
2023/08/02 03:47:45;;;;;;;;;;;;;;;19.81;100.00;99772.73;104882;1262;74654;-57
2023/08/02 03:50:12;;;;;;;;;;;;;;;19.84;100.00;99772.27;104872;1264;65846;-58
2023/08/02 03:52:39;;;;;;;;;;;;;;;19.85;100.00;99773.86;105079;1260;72708;-71
2023/08/02 03:55:06;;;;;;;;;;;;;;;19.85;100.00;99783.81;104584;1263;61126;-59
2023/08/02 03:57:33;;;;;;;;;;;;;;;19.87;100.00;99784.03;104886;1259;61428;-57
2023/08/02 04:00:00;;;;;;;;;;;;;;;19.90;100.00;99779.52;104941;1264;74694;-57
2023/08/02 04:02:27;;;;;;;;;;;;;;;19.92;100.00;99772.38;104894;1263;66597;-60
2023/08/02 04:04:54;;;;;;;;;;;;;;;19.94;100.00;99772.75;104852;1263;72602;-59
2023/08/02 04:07:21;;;;;;;;;;;;;;;19.94;100.00;99773.02;104915;1259;61395;-56
2023/08/02 04:09:48;;;;;;;;;;;;;;;19.93;100.00;99779.69;105504;1262;61142;-57
2023/08/02 04:12:17;;;;;;;;;;;;;;;19.93;100.00;99781.80;104928;1260;73889;-57
2023/08/02 04:14:44;;;;;;;;;;;;;;;19.94;100.00;99779.37;105270;1259;66478;-67
2023/08/02 04:17:11;;;;;;;;;;;;;;;19.95;100.00;99776.67;104701;1264;73640;-58
2023/08/02 04:19:38;;;;;;;;;;;;;;;19.97;100.00;99775.73;104652;1259;61905;-57
2023/08/02 04:22:05;;;;;;;;;;;;;;;19.98;100.00;99768.80;104886;1259;61356;-57
2023/08/02 04:24:32;;;;;;;;;;;;;;;19.99;100.00;99760.02;104827;1260;73468;-58
2023/08/02 04:26:59;;;;;;;;;;;;;;;19.99;100.00;99746.54;105071;1259;67904;-66
2023/08/02 04:29:26;;;;;;;;;;;;;;;20.01;100.00;99741.36;104907;1264;71813;-60
2023/08/02 04:31:53;;;;;;;;;;;;;;;20.02;100.00;99731.95;104913;1259;62253;-56
2023/08/02 04:34:20;;;;;;;;;;;;;;;20.03;100.00;99731.47;105079;1260;61341;-57
2023/08/02 04:36:47;;;;;;;;;;;;;;;20.05;100.00;99729.73;105079;1263;73513;-58
2023/08/02 04:39:15;;;;;;;;;;;;;;;20.09;100.00;99736.11;104880;1259;67847;-59
2023/08/02 04:41:42;;;;;;;;;;;;;;;20.14;100.00;99729.98;104967;1263;71476;-57
2023/08/02 04:44:09;;;;;;;;;;;;;;;20.21;100.00;99731.81;104867;1259;62089;-58
2023/08/02 04:46:36;;;;;;;;;;;;;;;20.28;100.00;99727.71;104946;1261;61116;-56
2023/08/02 04:49:03;;;;;;;;;;;;;;;20.37;100.00;99724.08;105254;1263;74741;-68
2023/08/02 04:51:31;;;;;;;;;;;;;;;20.47;100.00;99721.78;105190;1265;65685;-56
2023/08/02 04:53:58;;;;;;;;;;;;;;;20.56;100.00;99715.54;104918;1264;72574;-57
2023/08/02 04:56:25;;;;;;;;;;;;;;;20.68;100.00;99713.59;105059;1262;61369;-56
2023/08/02 04:58:52;;;;;;;;;;;;;;;20.80;100.00;99708.42;104753;1265;61164;-67
2023/08/02 05:01:18;;;;;;;;;;;;;;;20.92;100.00;99704.13;104598;1263;75620;-60
2023/08/02 05:03:45;;;;;;;;;;;;;;;21.07;100.00;99697.51;105093;1259;67219;-58
2023/08/02 05:06:12;;;;;;;;;;;;;;;21.28;100.00;99695.06;105095;1263;71832;-58
2023/08/02 05:08:40;;;;;;;;;;;;;;;21.63;100.00;99694.11;104936;1264;61278;-60
2023/08/02 05:11:07;;;;;;;;;;;;;;;21.98;100.00;99693.67;104962;1264;61090;-67
2023/08/02 05:13:34;;;;;;;;;;;;;;;22.26;100.00;99687.46;104694;1263;74948;-60
2023/08/02 05:16:01;;;;;;;;;;;;;;;22.54;100.00;99678.16;105001;1259;67441;-58
2023/08/02 05:18:28;;;;;;;;;;;;;;;22.75;100.00;99676.27;104842;1260;71552;-59
2023/08/02 05:20:55;;;;;;;;;;;;;;;22.88;100.00;99663.13;104891;1260;61844;-67
2023/08/02 05:23:22;;;;;;;;;;;;;;;23.01;100.00;99654.59;105350;1263;61212;-59
2023/08/02 05:25:49;;;;;;;;;;;;;;;23.32;100.00;99648.81;104973;1263;74617;-61
2023/08/02 05:28:16;;;;;;;;;;;;;;;23.99;100.00;99642.41;104925;1260;66006;-57
2023/08/02 05:30:42;;;;;;;;;;;;;;;24.75;100.00;99637.79;105099;1264;72381;-59
2023/08/02 05:33:09;;;;;;;;;;;;;;;25.59;100.00;99632.66;105526;1263;61237;-68
2023/08/02 05:35:36;;;;;;;;;;;;;;;26.55;100.00;99623.85;105093;1263;61230;-60
2023/08/02 05:38:04;;;;;;;;;;;;;;;27.50;100.00;99598.57;104962;1263;73946;-60
2023/08/02 05:40:31;;;;;;;;;;;;;;;28.18;100.00;99577.38;104890;1265;66582;-60
2023/08/02 05:42:58;;;;;;;;;;;;;;;28.26;100.00;99560.51;105219;1259;71819;-63
2023/08/02 05:45:25;;;;;;;;;;;;;;;28.03;100.00;99551.61;104848;1263;61226;-63
2023/08/02 05:47:52;;;;;;;;;;;;;;;27.79;100.00;99550.79;104895;1260;61184;-61
2023/08/02 05:50:19;;;;;;;;;;;;;;;27.98;100.00;99551.09;104899;1260;74924;-61
2023/08/02 05:52:46;;;;;;;;;;;;;;;28.58;100.00;99547.27;104901;1259;67003;-62
2023/08/02 05:55:13;;;;;;;;;;;;;;;29.39;100.00;99542.25;105841;1263;71510;-71
2023/08/02 05:57:39;;;;;;;;;;;;;;;30.27;100.00;99545.05;104595;1264;61255;-63
2023/08/02 06:00:07;;;;;;;;;;;;;;;31.05;100.00;99536.10;104929;1260;61155;-62
2023/08/02 06:02:34;;;;;;;;;;;;;;;31.69;100.00;99537.42;104952;1260;73536;-62
2023/08/02 06:05:02;;;;;;;;;;;;;;;32.27;100.00;99532.09;105562;1263;65924;-63
2023/08/02 06:07:29;;;;;;;;;;;;;;;32.69;100.00;99530.52;105202;1264;71335;-70
2023/08/02 06:09:56;;;;;;;;;;;;;;;33.11;100.00;99530.77;104376;1265;61263;-66
2023/08/02 06:12:23;;;;;;;;;;;;;;;33.43;100.00;99528.52;104967;1259;61227;-66
2023/08/02 06:14:50;;;;;;;;;;;;;;;33.72;100.00;99531.06;104977;1259;66140;-63
2023/08/02 06:17:17;;;;;;;;;;;;;;;34.10;100.00;99532.20;105594;1259;67221;-61
2023/08/02 06:19:43;;;;;;;;;;;;;;;34.49;100.00;99533.07;105107;1265;64003;-70
2023/08/02 06:22:10;;;;;;;;;;;;;;;34.75;97.85;99533.64;104936;1260;61343;-62
2023/08/02 06:24:37;;;;;;;;;;;;;;;34.85;97.63;99538.11;105244;1260;60405;-62
2023/08/02 06:27:04;;;;;;;;;;;;;;;34.85;95.41;99541.92;105253;1260;64824;-61
2023/08/02 06:29:31;;;;;;;;;;;;;;;34.69;91.71;99542.36;105609;1263;61575;-69
2023/08/02 06:31:58;;;;;;;;;;;;;;;34.43;88.60;99542.14;106833;1259;72575;-67
2023/08/02 06:34:25;;;;;;;;;;;;;;;34.14;92.84;99539.86;104945;1263;61341;-62
2023/08/02 06:36:52;;;;;;;;;;;;;;;33.91;95.06;99541.34;104940;1265;61401;-61
2023/08/02 06:39:20;;;;;;;;;;;;;;;33.85;96.03;99540.98;104967;1260;65995;-60
2023/08/02 06:41:46;;;;;;;;;;;;;;;34.14;99.80;99540.09;105563;1260;61288;-68
2023/08/02 06:44:14;;;;;;;;;;;;;;;34.67;99.91;99541.55;105295;1259;62854;-65
2023/08/02 06:46:41;;;;;;;;;;;;;;;35.22;93.49;99540.76;104649;1265;61249;-61
2023/08/02 06:49:08;;;;;;;;;;;;;;;35.69;82.38;99541.07;104884;1263;61876;-61
2023/08/02 06:51:35;;;;;;;;;;;;;;;36.09;79.21;99537.27;104979;1260;64559;-61
2023/08/02 06:54:02;;;;;;;;;;;;;;;36.49;76.19;99533.87;105355;1259;61325;-61
2023/08/02 06:56:28;;;;;;;;;;;;;;;36.68;64.35;99536.98;104774;1260;62553;-61
2023/08/02 06:58:55;;;;;;;;;;;;;;;36.36;59.27;99539.57;104921;1259;61244;-59
2023/08/02 07:01:22;;;;;;;;;;;;;;;35.77;66.78;99550.86;104884;1260;61316;-60
2023/08/02 07:03:49;;;;;;;;;;;;;;;35.26;73.28;99556.39;104787;1263;66000;-61
2023/08/02 07:06:17;;;;;;;;;;;;;;;34.71;74.79;99557.85;105184;1260;61298;-60
2023/08/02 07:08:44;;;;;;;;;;;;;;;34.05;82.49;99560.77;104788;1259;64531;-59
2023/08/02 07:11:11;;;;;;;;;;;;;;;33.44;91.47;99561.52;104922;1260;61330;-59
2023/08/02 07:13:52;;;;;;;;;;;;;;;32.97;97.77;99570.32;104838;1264;61353;-59
2023/08/02 07:16:19;;;;;;;;;;;;;;;32.70;100.00;99573.66;105158;1260;66373;-67
2023/08/02 07:18:46;;;;;;;;;;;;;;;32.56;100.00;99573.99;104911;1264;66005;-59
2023/08/02 07:21:13;;;;;;;;;;;;;;;32.47;100.00;99571.70;104842;1260;64075;-59
2023/08/02 07:23:40;;;;;;;;;;;;;;;32.33;100.00;99575.45;105130;1265;60095;-60
2023/08/02 07:26:09;;;;;;;;;;;;;;;32.23;100.00;99580.23;104804;1259;61375;-68
2023/08/02 07:28:36;;;;;;;;;;;;;;;32.23;100.00;99580.70;104774;1267;73638;-60
2023/08/02 07:31:09;;;;;;;;;;;;;;;32.37;100.00;99582.35;104950;1265;65759;-60
2023/08/02 07:33:36;;;;;;;;;;;;;;;32.50;100.00;99581.70;105118;1263;63864;-66
2023/08/02 07:36:03;;;;;;;;;;;;;;;32.47;100.00;99584.65;105003;1265;61170;-60
2023/08/02 07:38:30;;;;;;;;;;;;;;;32.33;100.00;99582.63;104927;1261;61354;-61
2023/08/02 07:40:57;;;;;;;;;;;;;;;32.29;100.00;99580.66;104876;1261;74366;-60
2023/08/02 07:43:24;;;;;;;;;;;;;;;32.51;100.00;99580.74;104903;1260;67630;-60
2023/08/02 07:45:51;;;;;;;;;;;;;;;32.88;100.00;99584.58;104893;1259;65319;-61
2023/08/02 07:48:18;;;;;;;;;;;;;;;33.04;100.00;99580.30;104873;1260;61262;-62
2023/08/02 07:50:45;;;;;;;;;;;;;;;33.00;100.00;99580.04;104869;1260;61382;-59
2023/08/02 12:25:31;;;;;;;5.50;3.10;;;;;;;36.33;49.74;99455.15;102692;1286;604137;-66
2023/08/02 12:28:07;;;;;;;5.50;3.10;;;;;;;36.52;52.53;99458.66;104618;1267;335953;-62
2023/08/02 12:30:34;;;;;;;4.90;3.30;;;;;;;36.16;54.13;99460.84;105409;1262;59297;-62
2023/08/02 12:33:02;;;;;;;5.90;3.20;;;;;;;35.40;59.42;99464.75;105790;1254;63317;-61
2023/08/02 12:35:30;;;;;;;5.50;3.40;;;;;;;34.59;70.79;99469.80;105672;1253;59090;-65
2023/08/02 12:37:58;;;;;;;5.70;3.40;;;;;;;33.94;80.68;99469.85;105414;1259;62546;-61
2023/08/02 12:40:28;;;;;;;4.50;3.30;;;;;;;33.35;87.11;99473.63;105619;1253;59139;-61
2023/08/02 12:42:56;;;;;;;4.30;3.50;;;;;;;32.77;94.74;99472.83;105760;1259;59294;-61
2023/08/02 12:45:30;;;;;;;4.50;3.90;;;;;;;32.29;99.49;99473.96;105661;1254;64519;-66
2023/08/02 12:47:58;;;;;;;7.60;4.30;;;;;;;31.98;100.00;99473.48;105611;1259;67051;-61
2023/08/02 12:50:25;;;;;;;6.00;5.20;;;;;;;31.85;100.00;99476.49;105456;1257;71783;-61
2023/08/02 12:52:55;;;;;;;7.60;4.60;;;;;;;31.83;100.00;99473.84;105321;1259;60129;-61
2023/08/02 12:55:23;;;;;;;7.80;5.60;;;;;;;31.86;100.00;99477.84;105634;1259;59567;-64
2023/08/02 12:57:51;;;;;;;5.40;4.50;;;;;;;31.97;100.00;99478.98;109038;1257;64574;-62
2023/08/02 13:00:19;;;;;;;5.40;3.60;;;;;;;32.09;100.00;99480.30;108809;1254;67648;-62
2023/08/02 13:02:47;;;;;;;4.40;3.70;;;;;;;32.24;100.00;99478.30;105567;1254;72739;-61
2023/08/02 13:05:15;;;;;;;5.00;4.50;;;;;;;32.48;100.00;99479.52;105422;1254;60143;-61
2023/08/02 13:07:42;;;;;;;5.30;4.00;;;;;;;32.63;100.00;99474.58;105319;1254;59711;-65
2023/08/02 13:10:12;;;;;;;5.60;3.80;;;;;;;32.83;100.00;99471.11;105518;1259;64234;-62
2023/08/02 13:12:40;;;;;;;3.90;3.40;;;;;;;33.24;100.00;99470.61;105488;1259;59279;-63
2023/08/02 13:15:09;;;;;;;4.80;4.00;;;;;;;33.63;100.00;99471.04;105513;1259;63740;-62
2023/08/02 13:17:36;;;;;;;5.50;3.70;;;;;;;33.97;100.00;99466.59;105672;1259;59547;-66
2023/08/02 13:20:05;;;;;;;4.30;3.70;;;;;;;34.16;99.95;99464.61;105261;1259;59637;-62
2023/08/02 13:22:33;;;;;;;4.60;4.10;;;;;;;34.08;99.43;99458.83;105761;1259;64274;-59
2023/08/02 13:25:01;;;;;;;4.50;3.70;;;;;;;33.89;100.00;99457.26;105242;1259;59623;-60
2023/08/02 13:27:29;;;;;;;5.00;4.30;;;;;;;33.68;100.00;99457.48;105522;1258;63247;-64
2023/08/02 13:29:56;;;;;;;6.20;4.10;;;;;;;33.46;100.00;99452.49;104986;1259;61476;-61
2023/08/02 13:32:24;;;;;;;4.70;3.90;;;;;;;33.36;100.00;99455.66;105009;1259;59919;-60
2023/08/02 13:34:52;;;;;;;4.70;4.20;;;;;;;33.08;100.00;99450.60;105063;1254;72649;-61
2023/08/02 13:37:23;;;;;;;8.50;5.20;;;;;;;32.84;100.00;99450.84;105628;1256;59507;-61
2023/08/02 13:39:50;;;;;;;5.70;4.60;;;;;;;32.61;100.00;99447.70;105148;1259;71297;-62
2023/08/02 13:42:18;;;;;;;5.90;4.80;;;;;;;32.47;100.00;99453.08;105369;1254;60164;-61
2023/08/02 13:44:46;;;;;;;4.90;4.10;;;;;;;32.25;100.00;99453.14;105108;1260;60078;-61
2023/08/02 13:47:14;;;;;;;5.50;4.80;;;;;;;31.92;100.00;99452.23;104847;1254;71897;-64
2023/08/02 13:49:42;;;;;;;4.50;3.90;;;;;;;31.61;100.00;99451.21;105113;1259;59634;-61
2023/08/02 13:52:10;;;;;;;7.80;4.80;;;;;;;31.29;100.00;99445.91;105151;1254;73256;-61
2023/08/02 13:54:38;;;;;;;6.00;4.90;;;;;;;31.00;100.00;99452.98;105177;1255;59640;-60
2023/08/02 13:57:06;;;;;;;6.50;5.20;;;;;;;30.92;100.00;99447.38;105147;1259;59817;-60
2023/08/02 13:59:33;;;;;;;4.90;4.30;;;;;;;30.99;100.00;99440.50;105138;1259;73712;-61
2023/08/02 14:02:01;;;;;;;5.20;4.00;;;;;;;31.09;100.00;99433.24;105554;1254;66907;-65
2023/08/02 14:04:29;;;;;;;5.60;4.80;;;;;;;31.15;100.00;99433.61;105150;1254;73175;-60
2023/08/02 14:06:57;;;;;;;6.20;5.10;;;;;;;31.21;100.00;99431.23;105133;1254;60091;-60
2023/08/02 14:09:25;;;;;;;6.40;4.30;;;;;;;31.31;100.00;99431.51;105173;1254;59715;-65
2023/08/02 14:11:52;;;;;;;6.50;4.50;;;;;;;31.30;100.00;99430.34;105144;1259;73107;-61
2023/08/02 14:14:20;;;;;;;5.70;4.50;;;;;;;31.30;100.00;99425.08;105402;1260;67535;-62
2023/08/02 14:16:48;;;;;;;5.60;5.10;;;;;;;31.30;100.00;99427.73;105297;1259;72055;-62
2023/08/02 14:19:16;;;;;;;6.40;5.10;;;;;;;31.23;100.00;99424.13;105195;1259;60116;-66
2023/08/02 14:21:44;;;;;;;6.70;5.60;;;;;;;31.18;100.00;99420.55;105049;1259;59619;-61
2023/08/02 14:24:12;;;;;;;6.90;5.20;;;;;;;31.15;100.00;99420.50;105426;1254;71799;-65
2023/08/02 14:26:40;;;;;;;5.60;5.10;;;;;;;31.04;100.00;99417.57;105305;1259;65621;-61
2023/08/02 14:29:08;;;;;;;6.40;5.80;;;;;;;30.87;100.00;99421.99;105045;1254;72747;-61
2023/08/02 14:31:38;;;;;;;6.90;5.90;;;;;;;30.74;100.00;99421.83;105303;1254;60179;-61
2023/08/02 14:34:06;;;;;;;7.30;5.30;;;;;;;30.63;100.00;99421.94;105451;1254;60053;-65
2023/08/02 14:36:34;;;;;;;6.10;5.50;;;;;;;30.54;100.00;99418.59;105167;1259;72164;-61
2023/08/02 14:39:01;;;;;;;6.10;5.50;;;;;;;30.44;100.00;99415.65;105233;1256;65531;-66
2023/08/02 14:41:29;;;;;;;5.60;5.10;;;;;;;30.39;100.00;99416.19;105051;1262;73306;-60
2023/08/02 14:44:00;;;;;;;6.20;5.40;;;;;;;30.39;100.00;99409.86;104888;1255;59630;-62
2023/08/02 14:46:27;;;;;;;5.80;5.10;;;;;;;30.44;100.00;99411.20;106385;1256;59260;-63
2023/08/02 14:48:55;;;;;;;6.60;5.20;;;;;;;30.43;100.00;99411.02;105986;1254;73010;-61
2023/08/02 14:51:23;;;;;;;6.00;5.40;;;;;;;30.34;100.00;99416.25;105080;1254;67876;-61
2023/08/02 14:53:51;;;;;;;5.80;5.20;;;;;;;30.28;100.00;99408.02;105051;1260;71401;-62
2023/08/02 14:56:38;;;;;;;6.80;5.40;;;;;;;30.25;100.00;99408.14;104937;1257;60339;-61
2023/08/02 14:59:06;;;;;;;6.20;5.50;;;;;;;30.24;100.00;99408.58;104789;1254;60206;-61
2023/08/02 15:01:33;;;;;;;8.40;5.40;;;;;;;30.27;100.00;99401.59;105043;1256;71877;-61
2023/08/02 15:04:02;;;;;;;6.70;5.30;;;;;;;30.26;100.00;99403.20;104841;1262;65789;-66
2023/08/02 15:06:29;;;;;;;6.30;5.30;;;;;;;30.20;100.00;99402.92;104897;1260;73830;-61
2023/08/02 15:08:57;;;;;;;6.50;5.10;;;;;;;30.14;100.00;99402.23;105248;1254;59706;-62
2023/08/02 15:11:25;;;;;;;6.10;5.50;;;;;;;30.11;100.00;99402.35;105727;1254;60056;-62
2023/08/02 15:13:53;;;;;;;6.50;5.00;;;;;;;30.08;100.00;99405.56;105257;1254;72455;-61
2023/08/02 15:16:21;;;;;;;6.80;4.90;;;;;;;30.03;100.00;99407.92;105199;1259;66951;-61
2023/08/02 15:18:49;;;;;;;6.10;5.10;;;;;;;29.98;100.00;99412.11;105484;1259;72708;-66
2023/08/02 15:21:16;;;;;;;8.60;5.60;;;;;;;29.91;100.00;99414.34;105004;1253;59617;-61
2023/08/02 15:23:44;;;;;;;6.90;5.30;;;;;;;29.84;100.00;99413.98;105323;1254;60488;-62
2023/08/02 15:26:12;;;;;;;6.20;5.20;;;;;;;29.80;100.00;99415.23;104941;1254;73081;-62
2023/08/02 15:28:40;;;;;;;6.40;5.20;;;;;;;29.78;100.00;99415.55;105183;1254;67629;-61
2023/08/02 15:31:08;;;;;;;5.80;5.10;;;;;;;29.72;100.00;99411.89;105094;1260;73260;-62
2023/08/02 15:33:36;;;;;;;6.80;5.40;;;;;;;29.64;100.00;99410.54;105298;1257;60237;-62
2023/08/02 15:36:04;;;;;;;6.20;5.60;;;;;;;29.59;100.00;99411.11;105250;1259;60118;-61
2023/08/02 15:38:32;;;;;;;6.80;5.50;;;;;;;29.55;100.00;99410.44;105506;1254;73136;-65
2023/08/02 15:41:00;;;;;;;7.70;5.10;;;;;;;29.51;100.00;99408.06;105206;1254;66307;-61
2023/08/02 15:43:28;;;;;;;8.50;5.40;;;;;;;29.45;100.00;99407.90;105354;1254;72988;-61
2023/08/02 15:45:56;;;;;;;7.60;5.40;;;;;;;29.38;100.00;99406.26;105556;1257;59631;-61
2023/08/02 15:48:24;;;;;;;7.10;5.50;;;;;;;29.31;100.00;99407.27;105446;1264;62497;-61
2023/08/02 15:50:52;;;;;;;6.80;5.00;;;;;;;29.22;100.00;99414.22;104816;1260;73519;-62
2023/08/02 15:53:20;;;;;;;5.30;4.80;;;;;;;29.10;100.00;99416.70;105152;1259;66906;-62
2023/08/02 15:55:48;;;;;;;7.80;5.20;;;;;;;29.02;100.00;99416.48;105423;1254;72976;-63
2023/08/02 15:58:15;;;;;;;6.20;5.60;;;;;;;28.95;100.00;99416.13;105413;1269;60093;-62
2023/08/02 16:00:43;;;;;;;7.10;5.40;;;;;;;28.86;100.00;99415.29;105652;1254;60049;-65
2023/08/02 16:03:11;;;;;;;6.80;5.60;;;;;;;28.75;100.00;99407.38;104985;1259;72223;-61
2023/08/02 16:05:39;;;;;;;6.10;5.50;;;;;;;28.65;100.00;99410.43;105476;1259;65847;-62
2023/08/02 16:08:07;;;;;;;7.40;5.90;;;;;;;28.55;100.00;99417.17;105555;1255;72728;-61
2023/08/02 16:10:35;;;;;;;8.20;6.30;;;;;;;28.47;100.00;99427.65;105840;1254;60083;-62
2023/08/02 16:13:03;;;;;;;8.30;5.70;;;;;;;28.37;100.00;99427.10;104864;1254;61065;-67
2023/08/02 16:15:31;;;;;;;7.90;6.20;;;;;;;28.26;100.00;99432.46;105591;1259;71656;-62
2023/08/02 16:17:59;;;;;;;6.40;5.80;;;;;;;28.16;100.00;99430.04;105243;1259;66597;-62
2023/08/02 16:20:27;;;;;;;8.50;6.40;;;;;;;28.02;100.00;99425.95;105399;1254;72796;-62
2023/08/02 16:22:55;;;;;;;8.30;6.20;;;;;;;27.90;100.00;99424.91;105735;1259;60076;-64
2023/08/02 16:25:25;;;;;;;7.40;6.30;;;;;;;27.78;100.00;99426.62;105858;1254;59504;-62
2023/08/02 16:27:53;;;;;;;11.80;7.10;;;;;;;27.68;100.00;99431.44;105762;1254;73049;-62
2023/08/02 16:30:21;;;;;;;8.50;6.40;;;;;;;27.60;100.00;99431.48;105686;1258;67131;-62
2023/08/02 16:32:50;;;;;;;9.60;6.90;;;;;;;27.51;100.00;99425.44;105720;1260;72731;-63
2023/08/02 16:35:22;;;;;;;8.30;6.20;;;;;;;27.42;100.00;99426.66;105524;1260;60754;-61